Time;durP1;ratioP1;P1;durP2;ratioP2;P2;SDS_P1;SDS_P2;PMS_P1;PMS_P2;Temp;Humidity;BMP_temperature;BMP_pressure;BME280_temperature;BME280_humidity;BME280_pressure;Samples;Min_cycle;Max_cycle;Signal;HPM_P1;HPM_P2
2021/07/20 00:01:21;;;;;;;30.53;17.23;;;;;;;15.78;nan;96846.53;3585625;39;20459;-74
2021/07/20 00:03:50;;;;;;;32.43;17.00;;;;;;;15.61;nan;96845.28;3585625;39;20452;-73
2021/07/20 00:06:18;;;;;;;32.60;17.93;;;;;;;15.57;nan;96841.22;3585458;39;20456;-74
2021/07/20 00:08:45;;;;;;;29.73;17.93;;;;;;;15.49;nan;96828.69;3585854;39;20845;-72
2021/07/20 00:11:13;;;;;;;30.10;16.90;;;;;;;15.51;nan;96839.94;3585675;39;20876;-75
2021/07/20 00:13:41;;;;;;;31.53;17.13;;;;;;;15.52;nan;96835.50;3586944;39;20525;-74
2021/07/20 00:16:11;;;;;;;30.50;17.83;;;;;;;15.55;nan;96833.44;3587540;39;20502;-73
2021/07/20 00:18:39;;;;;;;33.13;18.70;;;;;;;15.52;nan;96838.13;3585596;39;20862;-73
2021/07/20 00:21:09;;;;;;;30.53;17.53;;;;;;;15.56;nan;96836.91;3585612;39;20469;-73
2021/07/20 00:23:37;;;;;;;27.40;17.63;;;;;;;15.57;nan;96842.06;3586470;39;20541;-74
2021/07/20 00:26:08;;;;;;;38.67;18.20;;;;;;;15.48;nan;96845.47;3584596;39;20483;-74
2021/07/20 00:28:36;;;;;;;29.40;17.80;;;;;;;15.43;nan;96842.41;3586568;39;20921;-72
2021/07/20 00:31:04;;;;;;;34.27;17.53;;;;;;;15.43;nan;96839.75;3583594;39;20794;-74
2021/07/20 00:33:33;;;;;;;32.60;18.20;;;;;;;15.40;nan;96842.66;3586348;39;20466;-72
2021/07/20 00:36:01;;;;;;;46.73;18.23;;;;;;;15.26;nan;96840.34;3575851;39;20697;-75
2021/07/20 00:38:29;;;;;;;31.33;18.17;;;;;;;15.25;nan;96838.66;3586996;39;20448;-74
2021/07/20 00:40:57;;;;;;;29.67;18.23;;;;;;;15.19;nan;96842.63;3585331;39;20956;-74
2021/07/20 00:43:25;;;;;;;31.83;16.90;;;;;;;14.98;nan;96838.19;3586276;39;20452;-77
2021/07/20 00:45:53;;;;;;;34.73;17.93;;;;;;;14.89;nan;96838.97;3584850;39;20907;-72
2021/07/20 00:48:21;;;;;;;35.80;17.60;;;;;;;14.81;nan;96836.13;3586524;39;20762;-72
2021/07/20 00:50:50;;;;;;;31.40;18.03;;;;;;;14.89;nan;96838.13;3584866;39;20592;-75
2021/07/20 00:53:18;;;;;;;25.77;15.70;;;;;;;14.95;nan;96835.81;3586046;39;20456;-75
2021/07/20 00:55:47;;;;;;;29.97;18.00;;;;;;;15.00;nan;96838.09;3585179;39;20460;-74
2021/07/20 00:58:18;;;;;;;27.10;16.10;;;;;;;14.92;nan;96837.88;3585908;39;20905;-75
2021/07/20 01:00:49;;;;;;;31.47;17.67;;;;;;;14.81;nan;96839.59;3585518;39;20917;-76
2021/07/20 01:03:17;;;;;;;33.13;18.67;;;;;;;14.84;nan;96833.25;3585891;39;20440;-74
2021/07/20 01:05:45;;;;;;;33.00;17.63;;;;;;;14.91;nan;96836.19;3584951;39;20840;-75
2021/07/20 01:08:16;;;;;;;39.40;18.00;;;;;;;14.92;nan;96832.63;3573163;39;20751;-74
2021/07/20 01:10:45;;;;;;;32.87;17.10;;;;;;;14.94;nan;96835.97;3584371;39;20468;-73
2021/07/20 01:13:15;;;;;;;30.50;17.73;;;;;;;14.93;nan;96832.47;3575934;40;20465;-75
2021/07/20 01:15:44;;;;;;;34.67;18.00;;;;;;;14.92;nan;96832.63;3585452;39;20552;-73
2021/07/20 01:18:12;;;;;;;35.40;18.77;;;;;;;14.73;nan;96835.91;3564977;39;21171;-73
2021/07/20 01:20:41;;;;;;;29.30;17.20;;;;;;;14.78;nan;96831.94;3586889;39;21168;-76
2021/07/20 01:23:16;;;;;;;28.30;16.23;;;;;;;14.74;nan;96830.53;3586808;39;20925;-75
2021/07/20 01:25:47;;;;;;;26.03;16.73;;;;;;;14.83;nan;96829.75;3586027;39;20490;-74
2021/07/20 01:28:18;;;;;;;33.53;18.07;;;;;;;14.83;nan;96827.09;3561548;39;20461;-75
2021/07/20 01:30:48;;;;;;;31.77;18.40;;;;;;;14.50;nan;96820.13;3577080;39;20771;-75
2021/07/20 01:33:17;;;;;;;34.33;18.60;;;;;;;14.65;nan;96827.81;3587422;39;20540;-73
2021/07/20 01:35:48;;;;;;;30.50;16.03;;;;;;;14.61;nan;96817.50;3586772;39;20775;-75
2021/07/20 01:38:18;;;;;;;31.20;16.87;;;;;;;14.63;nan;96826.13;3587641;39;20465;-72
2021/07/20 01:40:48;;;;;;;39.53;18.40;;;;;;;14.61;nan;96811.41;3586421;39;20553;-74
2021/07/20 01:43:21;;;;;;;31.73;17.50;;;;;;;14.66;nan;96822.38;3587218;39;20913;-73
2021/07/20 01:45:50;;;;;;;32.50;17.63;;;;;;;14.55;nan;96820.59;3586460;39;20490;-73
2021/07/20 01:48:19;;;;;;;30.70;18.17;;;;;;;14.56;nan;96814.41;3586720;39;20452;-73
2021/07/20 01:50:48;;;;;;;32.97;19.30;;;;;;;14.52;nan;96815.56;3586680;39;20828;-73
2021/07/20 01:53:16;;;;;;;35.33;19.07;;;;;;;14.47;nan;96816.94;3585556;39;20464;-73
2021/07/20 01:55:44;;;;;;;32.83;17.37;;;;;;;14.42;nan;96820.75;3587129;39;20557;-73
2021/07/20 01:58:14;;;;;;;36.37;18.40;;;;;;;14.35;nan;96824.84;3587332;39;20462;-72
2021/07/20 02:00:42;;;;;;;33.53;18.60;;;;;;;14.32;nan;96813.72;3586665;39;20876;-73
2021/07/20 02:03:30;;;;;;;29.03;17.30;;;;;;;14.23;nan;96812.69;3587654;39;20833;-72
2021/07/20 02:08:51;;;;;;;29.67;16.93;;;;;;;14.25;nan;96813.41;3587769;39;20816;-74
2021/07/20 02:11:23;;;;;;;29.53;16.57;;;;;;;14.27;nan;96819.38;3586325;39;20814;-72
2021/07/20 02:13:57;;;;;;;33.00;17.23;;;;;;;14.22;nan;96819.72;3585948;39;20942;-71
2021/07/20 02:16:29;;;;;;;33.23;16.33;;;;;;;14.18;nan;96820.09;3586014;39;20924;-71
2021/07/20 02:19:02;;;;;;;30.23;16.90;;;;;;;14.16;nan;96819.38;3586404;39;20843;-72
2021/07/20 02:21:31;;;;;;;33.03;18.97;;;;;;;14.13;nan;96820.47;3586166;39;20498;-73
2021/07/20 02:24:00;;;;;;;34.40;17.30;;;;;;;14.12;nan;96820.59;3585772;39;20816;-73
2021/07/20 02:26:28;;;;;;;36.83;17.80;;;;;;;14.13;nan;96820.47;3587450;39;20570;-74
2021/07/20 02:28:58;;;;;;;33.80;17.90;;;;;;;14.13;nan;96816.97;3588326;39;20444;-73
2021/07/20 02:31:28;;;;;;;32.30;18.00;;;;;;;14.12;nan;96820.59;3586803;39;20864;-73
2021/07/20 02:33:56;;;;;;;31.47;17.60;;;;;;;14.08;nan;96822.63;3586927;39;20531;-73
2021/07/20 02:36:24;;;;;;;32.10;17.27;;;;;;;14.08;nan;96820.00;3585711;39;20492;-75
2021/07/20 02:38:54;;;;;;;32.57;18.43;;;;;;;14.09;nan;96819.03;3586216;39;20839;-74
2021/07/20 02:41:23;;;;;;;31.07;18.33;;;;;;;14.06;nan;96819.28;3586220;39;20596;-74
2021/07/20 02:43:51;;;;;;;33.67;17.50;;;;;;;13.88;nan;96824.22;3586740;39;20522;-72
2021/07/20 02:46:21;;;;;;;30.17;17.93;;;;;;;13.71;nan;96820.25;3586158;39;20467;-74
2021/07/20 02:48:51;;;;;;;30.07;16.60;;;;;;;13.81;nan;96813.31;3587347;39;20468;-73
2021/07/20 02:51:20;;;;;;;33.90;18.10;;;;;;;13.80;nan;96813.44;3586082;39;20476;-72
2021/07/20 02:53:53;;;;;;;31.47;17.70;;;;;;;13.76;nan;96814.63;3585931;39;20891;-73
2021/07/20 02:56:22;;;;;;;32.50;18.77;;;;;;;13.71;nan;96811.53;3587087;39;20540;-72
2021/07/20 02:58:53;;;;;;;28.57;17.00;;;;;;;13.63;nan;96810.31;3578321;39;20475;-72
2021/07/20 03:01:24;;;;;;;35.10;17.27;;;;;;;13.50;nan;96820.13;3576914;39;20548;-73
2021/07/20 03:03:52;;;;;;;34.07;16.60;;;;;;;13.36;nan;96815.91;3587005;39;20858;-74
2021/07/20 03:06:23;;;;;;;32.03;16.30;;;;;;;13.39;nan;96810.44;3586044;39;20799;-73
2021/07/20 03:08:52;;;;;;;30.93;16.37;;;;;;;13.47;nan;96817.75;3574189;39;20457;-72
2021/07/20 03:11:22;;;;;;;29.97;16.10;;;;;;;13.49;nan;96807.94;3585837;39;20781;-72
2021/07/20 03:13:56;;;;;;;28.57;15.90;;;;;;;13.49;nan;96805.31;3586593;39;20756;-71
2021/07/20 03:16:27;;;;;;;31.53;16.70;;;;;;;13.49;nan;96817.63;3584996;39;20622;-71
2021/07/20 03:18:56;;;;;;;30.47;16.20;;;;;;;13.46;nan;96810.78;3586676;39;20840;-74
2021/07/20 03:21:25;;;;;;;37.03;18.67;;;;;;;13.48;nan;96815.94;3586014;39;20901;-74
2021/07/20 03:23:55;;;;;;;31.03;17.07;;;;;;;13.44;nan;96813.53;3586873;39;20573;-72
2021/07/20 03:26:25;;;;;;;24.97;15.50;;;;;;;13.41;nan;96818.22;3585392;39;20802;-72
2021/07/20 03:28:55;;;;;;;36.57;18.67;;;;;;;13.39;nan;96814.88;3586977;39;20808;-72
2021/07/20 03:31:24;;;;;;;33.60;17.90;;;;;;;13.40;nan;96816.53;3586030;39;20837;-72
2021/07/20 03:33:55;;;;;;;34.10;17.10;;;;;;;13.41;nan;96816.41;3586095;39;20769;-74
2021/07/20 03:36:23;;;;;;;28.50;16.87;;;;;;;13.40;nan;96811.25;3587040;39;20926;-74
2021/07/20 03:38:51;;;;;;;27.80;15.90;;;;;;;13.40;nan;96813.88;3587402;39;20710;-74
2021/07/20 03:41:21;;;;;;;27.73;16.60;;;;;;;13.25;nan;96814.09;3586009;39;20456;-73
2021/07/20 03:43:49;;;;;;;33.73;16.30;;;;;;;13.15;nan;96813.13;3587419;39;20490;-74
2021/07/20 03:46:17;;;;;;;27.90;15.73;;;;;;;12.81;nan;96818.25;3586050;39;21192;-73
2021/07/20 03:48:48;;;;;;;30.90;15.87;;;;;;;12.87;nan;96814.34;3586517;39;20441;-73
2021/07/20 03:51:16;;;;;;;30.97;15.73;;;;;;;12.76;nan;96804.63;3585345;39;20463;-73
2021/07/20 03:53:46;;;;;;;27.97;15.10;;;;;;;13.04;nan;96813.09;3586810;39;20884;-73
2021/07/20 03:56:15;;;;;;;37.20;16.73;;;;;;;13.15;nan;96818.38;3565196;39;20945;-72
2021/07/20 03:58:44;;;;;;;28.53;16.40;;;;;;;13.35;nan;96823.91;3586465;39;20904;-73
2021/07/20 04:01:13;;;;;;;28.13;16.63;;;;;;;13.32;nan;96824.16;3586113;39;20856;-73
2021/07/20 04:03:45;;;;;;;30.10;16.90;;;;;;;13.30;nan;96826.91;3578176;39;20720;-72
2021/07/20 04:06:16;;;;;;;30.60;16.87;;;;;;;13.35;nan;96831.81;3586559;39;20443;-74
2021/07/20 04:08:45;;;;;;;31.77;17.00;;;;;;;13.35;nan;96829.19;3585645;39;20715;-74
2021/07/20 04:11:15;;;;;;;28.00;15.93;;;;;;;13.41;nan;96826.94;3586213;39;20482;-73
2021/07/20 04:13:43;;;;;;;35.27;19.30;;;;;;;13.51;nan;96832.31;3586484;39;21093;-75
2021/07/20 04:16:13;;;;;;;33.03;17.40;;;;;;;13.43;nan;96829.44;3585718;39;20455;-75
2021/07/20 04:18:41;;;;;;;33.93;16.87;;;;;;;13.46;nan;96831.84;3574467;39;20780;-74
2021/07/20 04:21:09;;;;;;;30.13;17.07;;;;;;;13.47;nan;96832.69;3585284;39;20558;-74
2021/07/20 04:23:39;;;;;;;29.27;16.63;;;;;;;13.48;nan;96837.81;3585169;39;20816;-74
2021/07/20 04:26:09;;;;;;;30.67;17.80;;;;;;;13.49;nan;96844.75;3584805;39;20491;-72
2021/07/20 04:28:37;;;;;;;31.27;17.03;;;;;;;13.54;nan;96844.41;3576390;39;20831;-72
2021/07/20 04:31:07;;;;;;;31.80;18.13;;;;;;;13.57;nan;96839.75;3584531;39;20794;-76
2021/07/20 04:33:36;;;;;;;30.73;18.13;;;;;;;13.56;nan;96847.75;3586964;39;20447;-72
2021/07/20 04:36:06;;;;;;;31.53;18.00;;;;;;;13.54;nan;96845.22;3586404;39;20593;-73
2021/07/20 04:38:36;;;;;;;30.53;17.40;;;;;;;13.32;nan;96842.56;3573993;39;20992;-74
2021/07/20 04:41:06;;;;;;;37.43;17.10;;;;;;;13.34;nan;96848.56;3584634;39;20455;-72
2021/07/20 04:43:34;;;;;;;24.37;14.17;;;;;;;12.97;nan;96852.13;3575601;39;20476;-73
2021/07/20 04:46:02;;;;;;;26.50;15.80;;;;;;;12.81;nan;96857.69;3584607;39;20556;-73
2021/07/20 04:48:31;;;;;;;28.93;14.83;;;;;;;12.81;nan;96843.72;3586736;39;20456;-73
2021/07/20 04:50:59;;;;;;;27.20;15.77;;;;;;;13.04;nan;96857.78;3586325;39;20738;-72
2021/07/20 04:53:27;;;;;;;31.90;16.10;;;;;;;13.36;nan;96855.38;3586839;39;20533;-73
2021/07/20 04:55:55;;;;;;;31.20;17.40;;;;;;;13.50;nan;96858.75;3585471;39;20849;-73
2021/07/20 04:58:24;;;;;;;49.03;19.10;;;;;;;13.66;nan;96864.50;3587564;39;20739;-72
2021/07/20 05:00:54;;;;;;;36.13;18.37;;;;;;;13.91;nan;96858.19;3586184;39;20982;-72
2021/07/20 05:03:24;;;;;;;44.80;17.97;;;;;;;14.07;nan;96862.25;3587489;39;20448;-73
2021/07/20 05:05:54;;;;;;;34.30;16.70;;;;;;;13.93;nan;96861.53;3586341;39;20477;-72
2021/07/20 05:08:23;;;;;;;31.67;15.60;;;;;;;14.02;nan;96862.63;3585176;39;20455;-72
2021/07/20 05:10:55;;;;;;;26.17;16.03;;;;;;;14.12;nan;96871.47;3586446;39;20984;-73
2021/07/20 05:13:25;;;;;;;31.03;16.97;;;;;;;14.23;nan;96862.72;3587459;39;20529;-72
2021/07/20 05:15:55;;;;;;;29.40;16.87;;;;;;;14.29;nan;96870.13;3577125;39;20467;-71
2021/07/20 05:18:23;;;;;;;32.97;16.67;;;;;;;14.33;nan;96866.28;3587521;39;20501;-73
2021/07/20 05:20:55;;;;;;;31.40;18.80;;;;;;;14.31;nan;96868.22;3585285;39;20470;-71
2021/07/20 05:23:24;;;;;;;31.30;17.50;;;;;;;14.40;nan;96864.81;3586586;39;21144;-71
2021/07/20 05:25:54;;;;;;;34.40;18.50;;;;;;;14.51;nan;96877.16;3586328;39;20852;-73
2021/07/20 05:28:25;;;;;;;37.53;18.53;;;;;;;14.53;nan;96877.03;3586826;39;20932;-72
2021/07/20 05:30:56;;;;;;;44.13;17.67;;;;;;;14.62;nan;96882.44;3586052;39;20925;-72
2021/07/20 05:33:24;;;;;;;36.43;17.87;;;;;;;14.54;nan;96878.69;3587250;39;20444;-71
2021/07/20 05:35:54;;;;;;;38.23;19.67;;;;;;;14.20;nan;96881.41;3586111;39;20499;-71
2021/07/20 05:38:22;;;;;;;33.13;18.07;;;;;;;14.36;nan;96886.28;3575531;39;20460;-71
2021/07/20 05:40:51;;;;;;;35.50;20.00;;;;;;;14.63;nan;96885.91;3586047;39;20919;-71
2021/07/20 05:43:20;;;;;;;34.50;20.33;;;;;;;14.79;nan;96881.06;3586623;39;20888;-72
2021/07/20 05:45:49;;;;;;;37.77;19.70;;;;;;;14.80;nan;96877.47;3585821;39;20498;-71
2021/07/20 05:48:20;;;;;;;39.20;19.27;;;;;;;14.86;nan;96883.19;3587051;39;20840;-72
2021/07/20 05:50:52;;;;;;;36.47;19.37;;;;;;;15.10;nan;96883.81;3577443;39;20836;-71
2021/07/20 05:53:22;;;;;;;38.70;21.20;;;;;;;15.20;nan;96883.91;3586283;39;20824;-71
2021/07/20 05:55:52;;;;;;;56.20;31.33;;;;;;;15.18;nan;96885.81;3586843;39;20451;-72
2021/07/20 05:58:22;;;;;;;35.60;20.43;;;;;;;15.28;nan;96891.19;3586146;39;20608;-72
2021/07/20 06:00:53;;;;;;;37.20;19.93;;;;;;;15.38;nan;96889.44;3586113;39;20781;-71
2021/07/20 06:03:23;;;;;;;38.07;19.83;;;;;;;15.55;nan;96885.41;3587490;39;20820;-71
2021/07/20 06:05:53;;;;;;;39.30;18.63;;;;;;;15.49;nan;96883.28;3585698;39;20558;-72
2021/07/20 06:08:24;;;;;;;37.20;20.77;;;;;;;15.59;nan;96881.53;3586224;39;20763;-71
2021/07/20 06:10:54;;;;;;;35.43;18.93;;;;;;;15.60;nan;96885.81;3585359;39;20537;-72
2021/07/20 06:13:25;;;;;;;35.50;21.10;;;;;;;15.34;nan;96885.38;3586446;39;21153;-71
2021/07/20 06:15:56;;;;;;;36.83;19.43;;;;;;;15.47;nan;96866.75;3586309;39;20829;-71
2021/07/20 06:18:24;;;;;;;35.63;19.90;;;;;;;16.22;nan;96881.44;3586792;39;20926;-72
2021/07/20 06:20:56;;;;;;;31.60;17.17;;;;;;;16.69;nan;96884.34;3585538;39;20467;-71
2021/07/20 06:23:28;;;;;;;32.27;17.63;;;;;;;17.16;nan;96881.91;3586720;39;21225;-71
2021/07/20 06:25:57;;;;;;;39.47;19.97;;;;;;;17.13;nan;96882.19;3586152;39;20491;-71
2021/07/20 06:28:26;;;;;;;356.50;233.27;;;;;;;16.99;nan;96882.59;3587062;39;20444;-72
2021/07/20 06:30:56;;;;;;;35.43;15.63;;;;;;;17.18;nan;96879.94;3585621;39;20493;-71
2021/07/20 06:33:26;;;;;;;33.77;16.40;;;;;;;16.90;nan;96886.09;3586439;39;20909;-72
2021/07/20 06:35:54;;;;;;;26.23;14.63;;;;;;;16.83;nan;96892.88;3586138;39;20837;-71
2021/07/20 06:38:25;;;;;;;47.73;14.00;;;;;;;17.64;nan;96885.47;3586153;39;20843;-75
2021/07/20 06:40:54;;;;;;;26.97;12.93;;;;;;;17.68;nan;96884.22;3585883;39;20564;-72
2021/07/20 06:43:23;;;;;;;19.43;10.77;;;;;;;18.16;nan;96887.72;3586031;39;21021;-73
2021/07/20 06:45:53;;;;;;;26.23;10.23;;;;;;;17.34;nan;96879.38;3585686;39;20910;-72
2021/07/20 06:48:23;;;;;;;25.00;11.00;;;;;;;18.07;nan;96892.09;3586852;39;20836;-71
2021/07/20 06:50:54;;;;;;;22.83;11.03;;;;;;;18.30;nan;96899.66;3576750;39;20466;-73
2021/07/20 06:53:22;;;;;;;30.17;11.17;;;;;;;17.40;nan;96901.81;3586073;39;20863;-71
2021/07/20 06:55:53;;;;;;;18.87;10.67;;;;;;;17.42;nan;96897.19;3585260;39;20448;-73
2021/07/20 06:58:23;;;;;;;26.97;10.07;;;;;;;18.14;nan;96898.47;3584812;39;20552;-72
2021/07/20 07:00:54;;;;;;;18.87;10.60;;;;;;;19.02;nan;96902.50;3585722;39;20525;-72
2021/07/20 07:03:27;;;;;;;22.73;10.13;;;;;;;18.73;nan;96904.31;3586601;39;20767;-71
2021/07/20 07:06:00;;;;;;;21.93;13.27;;;;;;;17.72;nan;96901.50;3575888;39;20485;-73
2021/07/20 07:08:29;;;;;;;30.20;10.40;;;;;;;18.65;nan;96912.16;3576087;39;20720;-72
2021/07/20 07:10:59;;;;;;;18.30;10.03;;;;;;;18.82;nan;96912.38;3585527;39;20475;-72
2021/07/20 07:13:29;;;;;;;19.77;11.17;;;;;;;19.16;nan;96905.44;3585878;39;20560;-71
2021/07/20 07:15:58;;;;;;;17.57;10.57;;;;;;;19.05;nan;96905.69;3576154;39;20673;-71
2021/07/20 07:18:29;;;;;;;13.10;8.43;;;;;;;19.14;nan;96904.75;3586055;39;20433;-72
2021/07/20 07:20:58;;;;;;;22.00;10.53;;;;;;;19.80;nan;96897.34;3577098;39;21202;-72
2021/07/20 07:23:29;;;;;;;25.33;11.40;;;;;;;19.72;nan;96897.31;3587177;39;20546;-72
2021/07/20 07:25:59;;;;;;;19.03;10.27;;;;;;;20.10;nan;96897.84;3585056;39;20588;-72
2021/07/20 07:28:28;;;;;;;22.80;10.00;;;;;;;20.29;nan;96889.66;3586017;39;20654;-71
2021/07/20 07:30:56;;;;;;;30.47;9.90;;;;;;;20.30;nan;96888.63;3576010;39;20979;-70
2021/07/20 07:33:25;;;;;;;21.00;10.63;;;;;;;20.12;nan;96887.91;3585540;39;20949;-72
2021/07/20 07:35:54;;;;;;;20.03;9.97;;;;;;;20.23;nan;96900.91;3585042;39;20794;-72
2021/07/20 07:38:23;;;;;;;23.33;9.60;;;;;;;20.44;nan;96895.19;3577001;39;20949;-70
2021/07/20 07:40:55;;;;;;;16.03;9.87;;;;;;;20.77;nan;96891.84;3585603;39;20533;-73
2021/07/20 07:43:26;;;;;;;15.33;8.70;;;;;;;20.54;nan;96895.91;3578540;39;20775;-71
2021/07/20 07:45:57;;;;;;;18.83;8.50;;;;;;;20.68;nan;96894.47;3584732;39;20745;-69
2021/07/20 07:48:27;;;;;;;18.87;9.50;;;;;;;20.85;nan;96892.69;3585831;39;20515;-71
2021/07/20 07:50:58;;;;;;;15.97;8.20;;;;;;;21.02;nan;96898.06;3584804;39;20507;-72
2021/07/20 07:53:26;;;;;;;21.37;8.53;;;;;;;21.21;nan;96895.09;3586566;39;20752;-72
2021/07/20 07:55:55;;;;;;;21.27;8.27;;;;;;;21.59;nan;96900.78;3585920;39;20552;-71
2021/07/20 07:58:28;;;;;;;14.70;7.70;;;;;;;21.25;nan;96892.94;3572878;39;20588;-73
2021/07/20 08:00:57;;;;;;;17.83;7.10;;;;;;;21.73;nan;96892.09;3586359;39;20472;-70
2021/07/20 08:03:28;;;;;;;17.73;7.13;;;;;;;21.28;nan;96893.41;3587460;39;20450;-70
2021/07/20 08:06:00;;;;;;;20.83;7.90;;;;;;;21.71;nan;96898.59;3585024;39;20476;-72
2021/07/20 08:08:30;;;;;;;19.97;8.60;;;;;;;21.33;nan;96901.75;3586301;39;20467;-70
2021/07/20 08:10:58;;;;;;;17.50;7.67;;;;;;;21.62;nan;96899.59;3584969;39;20471;-73
2021/07/20 08:13:27;;;;;;;13.03;7.20;;;;;;;21.37;nan;96899.59;3585466;39;20464;-74
2021/07/20 08:15:56;;;;;;;12.60;7.27;;;;;;;21.63;nan;96898.63;3585991;39;20452;-72
2021/07/20 08:18:25;;;;;;;26.80;8.87;;;;;;;21.66;nan;96906.25;3586363;39;21199;-71
2021/07/20 08:21:02;;;;;;;12.73;7.03;;;;;;;22.11;nan;96910.22;3585870;39;20695;-71
2021/07/20 08:23:31;;;;;;;22.30;7.40;;;;;;;22.53;nan;96909.09;3588931;39;21160;-72
2021/07/20 08:26:05;;;;;;;13.07;7.57;;;;;;;22.87;nan;96910.59;3586912;39;21250;-72
2021/07/20 08:28:39;;;;;;;23.63;12.10;;;;;;;23.49;nan;96907.06;3588757;39;20588;-71
2021/07/20 08:31:09;;;;;;;24.10;10.90;;;;;;;23.02;nan;96908.88;3588557;39;20824;-74
2021/07/20 08:33:57;;;;;;;25.37;8.00;;;;;;;23.24;nan;96912.56;3592408;39;20560;-73
2021/07/20 08:36:45;;;;;;;21.40;9.33;;;;;;;23.30;nan;96911.03;3600812;39;20479;-72
2021/07/20 08:39:25;;;;;;;20.77;9.30;;;;;;;23.62;nan;96911.78;3586263;39;20476;-72
2021/07/20 08:42:09;;;;;;;17.93;9.50;;;;;;;23.60;nan;96895.09;3589235;39;20431;-72
2021/07/20 08:45:09;;;;;;;29.10;10.40;;;;;;;23.07;nan;96911.00;3575197;39;20542;-73
2021/07/20 08:48:14;;;;;;;17.47;8.67;;;;;;;23.80;nan;96906.16;3586497;39;20824;-73
2021/07/20 08:50:46;;;;;;;20.73;9.60;;;;;;;24.01;nan;96902.75;3595263;39;20459;-72
2021/07/20 08:53:29;;;;;;;15.53;9.27;;;;;;;24.35;nan;96901.41;3586557;39;20456;-74
2021/07/20 08:56:01;;;;;;;16.77;9.57;;;;;;;24.53;nan;96901.88;3586501;39;20820;-72
2021/07/20 08:58:33;;;;;;;16.37;8.60;;;;;;;23.52;nan;96893.31;3587209;39;20486;-72
2021/07/20 09:01:06;;;;;;;19.20;9.77;;;;;;;24.16;nan;96900.94;3586542;39;20769;-73
2021/07/20 09:03:55;;;;;;;18.73;10.10;;;;;;;24.57;nan;96899.69;3587921;39;20721;-73
2021/07/20 09:06:29;;;;;;;20.07;10.07;;;;;;;24.59;nan;96901.13;3567530;39;20792;-71
2021/07/20 09:09:02;;;;;;;18.60;9.90;;;;;;;24.19;nan;96897.91;3586956;39;20848;-73
2021/07/20 09:11:34;;;;;;;20.20;10.37;;;;;;;;;;3585828;39;20728;-72
2021/07/20 09:14:10;;;;;;;21.10;10.20;;;;;;;24.78;nan;96899.75;3587542;39;20545;-73
2021/07/20 09:16:43;;;;;;;21.70;11.17;;;;;;;24.62;nan;96907.97;3588334;39;20812;-72
2021/07/20 09:19:18;;;;;;;21.63;10.33;;;;;;;24.86;nan;96893.44;3585760;39;20456;-73
2021/07/20 09:21:51;;;;;;;21.37;11.93;;;;;;;24.19;nan;96905.13;3573719;39;20712;-73
2021/07/20 09:24:22;;;;;;;22.47;11.67;;;;;;;24.03;nan;96885.53;3587918;39;20455;-71
2021/07/20 09:27:00;;;;;;;18.03;10.70;;;;;;;24.34;nan;96897.88;3588758;39;20460;-72
2021/07/20 09:29:30;;;;;;;18.03;11.83;;;;;;;25.19;nan;96901.03;3589091;39;20749;-72
2021/07/20 09:32:23;;;;;;;22.27;11.10;;;;;;;23.71;nan;96900.00;3587485;39;20754;-71
2021/07/20 09:35:01;;;;;;;21.23;12.03;;;;;;;25.12;nan;96897.44;3586313;39;20572;-71
2021/07/20 09:37:37;;;;;;;19.53;10.90;;;;;;;26.01;nan;96897.88;3587666;39;20452;-72
2021/07/20 09:40:13;;;;;;;23.13;11.73;;;;;;;26.00;nan;96904.25;3587254;39;20789;-76
2021/07/20 09:42:45;;;;;;;20.37;11.23;;;;;;;25.12;nan;96895.56;3587212;39;20791;-71
2021/07/20 09:45:17;;;;;;;20.10;12.47;;;;;;;25.14;nan;96892.72;3587923;39;20708;-71
2021/07/20 09:47:58;;;;;;;17.83;11.03;;;;;;;24.95;nan;96892.31;3589077;39;21171;-73
2021/07/20 09:50:31;;;;;;;16.10;11.43;;;;;;;25.01;nan;96891.56;3585948;39;20788;-72
2021/07/20 09:53:20;;;;;;;27.70;11.53;;;;;;;25.20;nan;96898.13;3586591;39;20774;-73
2021/07/20 09:56:10;;;;;;;21.47;11.30;;;;;;;25.93;nan;96889.13;3586240;39;20816;-72
2021/07/20 09:58:47;;;;;;;18.53;11.60;;;;;;;24.48;nan;96893.53;3586642;39;20440;-71
2021/07/20 10:01:23;;;;;;;21.57;11.13;;;;;;;25.94;nan;96888.94;3586204;39;20774;-74
2021/07/20 10:03:57;;;;;;;19.80;11.23;;;;;;;24.80;nan;96891.53;3587073;39;20696;-72
2021/07/20 10:06:36;;;;;;;19.10;11.40;;;;;;;24.69;nan;96887.47;3586720;39;20464;-73
2021/07/20 10:09:06;;;;;;;22.57;13.50;;;;;;;26.22;nan;96888.91;3585790;39;20521;-73
2021/07/20 10:11:40;;;;;;;24.53;12.27;;;;;;;26.43;nan;96887.16;3586519;39;20466;-72
2021/07/20 10:14:25;;;;;;;20.43;12.87;;;;;;;26.37;nan;96882.59;3586206;39;20742;-73
2021/07/20 10:17:02;;;;;;;24.27;13.23;;;;;;;26.08;nan;96881.81;3586901;39;20560;-71
2021/07/20 10:19:37;;;;;;;20.43;11.50;;;;;;;27.00;nan;96885.97;3587924;39;20455;-72
2021/07/20 10:22:09;;;;;;;23.53;12.50;;;;;;;26.85;nan;96876.41;3586891;39;20467;-72
2021/07/20 10:24:42;;;;;;;21.23;12.30;;;;;;;24.81;nan;96882.44;3585455;39;20785;-72
2021/07/20 10:27:15;;;;;;;19.53;11.67;;;;;;;25.38;nan;96880.81;3577090;39;20471;-72
2021/07/20 10:29:50;;;;;;;22.10;12.90;;;;;;;25.64;nan;96882.91;3587504;39;20468;-73
2021/07/20 10:32:24;;;;;;;19.77;12.03;;;;;;;25.66;nan;96880.84;3586340;39;20456;-72
2021/07/20 10:34:58;;;;;;;52.13;34.40;;;;;;;24.94;nan;96884.47;3587531;39;20468;-71
2021/07/20 10:37:29;;;;;;;32.07;19.17;;;;;;;24.84;nan;96879.41;3588030;39;20440;-71
2021/07/20 10:40:01;;;;;;;17.20;11.77;;;;;;;24.71;nan;96879.25;3587632;39;20540;-73
2021/07/20 10:42:35;;;;;;;19.83;12.37;;;;;;;25.02;nan;96876.31;3589223;39;20472;-72
2021/07/20 10:45:07;;;;;;;20.60;12.50;;;;;;;24.16;nan;96879.53;3587650;39;20468;-71
2021/07/20 10:47:41;;;;;;;24.70;13.40;;;;;;;25.06;nan;96878.41;3588582;39;20594;-73
2021/07/20 10:50:13;;;;;;;22.23;13.00;;;;;;;24.93;nan;96877.44;3586157;39;20569;-72
2021/07/20 10:52:55;;;;;;;17.43;12.03;;;;;;;25.60;nan;96873.56;3587931;39;20927;-74
2021/07/20 10:55:27;;;;;;;20.80;11.80;;;;;;;25.49;nan;96884.84;3585879;39;20481;-73
2021/07/20 10:58:00;;;;;;;26.83;12.20;;;;;;;26.10;nan;96882.44;3588046;39;20435;-73
2021/07/20 11:00:42;;;;;;;22.87;13.37;;;;;;;27.75;nan;96891.25;3586521;39;20464;-72
2021/07/20 11:03:16;;;;;;;15.47;11.40;;;;;;;27.26;nan;96892.47;3587030;39;20449;-71
2021/07/20 11:05:53;;;;;;;20.63;11.47;;;;;;;27.02;38.94;96886.59;3595280;39;21002;-73
2021/07/20 11:08:23;;;;;;;22.07;13.47;;;;;;;27.32;36.56;96894.34;3588726;39;20456;-72
2021/07/20 11:10:56;;;;;;;22.00;12.67;;;;;;;25.80;41.34;96890.66;3587867;39;20840;-70
2021/07/20 11:13:30;;;;;;;25.53;12.90;;;;;;;26.51;40.71;96889.69;3589989;39;20441;-71
2021/07/20 11:16:01;;;;;;;22.73;12.00;;;;;;;26.61;37.92;96886.66;3587883;39;20681;-72
2021/07/20 11:18:33;;;;;;;19.13;13.03;;;;;;;25.49;39.83;96884.84;3588684;39;21136;-70
2021/07/20 11:21:04;;;;;;;68.83;40.70;;;;;;;25.09;42.61;96884.41;3586361;39;20706;-72
2021/07/20 11:23:38;;;;;;;32.30;16.80;;;;;;;25.31;42.63;96875.41;3591879;39;20669;-73
2021/07/20 11:26:08;;;;;;;19.20;11.70;;;;;;;25.79;41.13;96875.56;3583900;39;20667;-71
2021/07/20 11:28:38;;;;;;;20.47;12.50;;;;;;;26.72;39.16;96877.22;3587809;39;20513;-73
2021/07/20 11:31:11;;;;;;;18.63;12.50;;;;;;;26.65;39.64;96874.50;3586996;39;20844;-71
2021/07/20 11:33:43;;;;;;;17.33;11.97;;;;;;;26.04;37.21;96873.31;3587855;39;20432;-72
2021/07/20 11:36:18;;;;;;;19.70;11.77;;;;;;;26.93;38.57;96879.78;3587040;39;20731;-71
2021/07/20 11:38:49;;;;;;;18.40;13.13;;;;;;;27.39;37.37;96872.84;3588740;39;20472;-72
2021/07/20 11:41:28;;;;;;;21.80;12.87;;;;;;;28.17;36.79;96854.19;3586852;39;20917;-73
2021/07/20 11:44:04;;;;;;;24.30;12.10;;;;;;;27.99;35.83;96859.41;3586171;39;20503;-73
2021/07/20 11:46:37;;;;;;;21.33;11.87;;;;;;;28.03;34.49;96862.50;3584081;39;20717;-70
2021/07/20 11:49:09;;;;;;;21.83;11.40;;;;;;;27.61;37.08;96862.72;3591825;39;20420;-71
2021/07/20 11:51:48;;;;;;;20.70;10.43;;;;;;;27.47;36.32;96866.44;3587708;39;20455;-73
2021/07/20 11:54:28;;;;;;;25.13;13.20;;;;;;;26.48;39.00;96871.28;3586526;39;20692;-72
2021/07/20 11:57:06;;;;;;;17.40;11.03;;;;;;;27.77;36.27;96856.91;3584709;39;20442;-71